Eko 4 — SVAR8 — position and weather

sailwx.info

Track history (hours):
 
Tides and Currents Weather Stations Pressure Air Temp Water Temp Dewpoint Dewpoint Depression Visibility Wind Speed Wind Dir Waves Ship Positions

Eko 4

Last reported at 2016-Feb-11 18:28 UTC. Time now 2016-Feb-14 14:38 UTC.
Position N 37°38' E 023°51'.

Length 88 m; draft 5.5 m.

Type: Tanker. MMSI: 240912000.

Date/timePositionNaut miles runAvg speedWind from/ knotsBaromVisibWave heightAir tempDewpointWater temp
2016-Feb-11 18:28N 37°38' E 023°51'8 8.4
2016-Feb-11 17:32N 37°41' E 023°42'9 9.1
2016-Feb-11 16:33N 37°49' E 023°37'8 8.2
2016-Feb-11 15:33N 37°57' E 023°35'5 4.1
2016-Feb-11 14:14N 38°02' E 023°32'0 0.0
2016-Feb-11 13:14N 38°02' E 023°32'0 0.0
2016-Feb-11 12:08N 38°02' E 023°32'0 0.0
2016-Feb-11 10:26N 38°02' E 023°32'0 0.2
2016-Feb-11 09:33N 38°02' E 023°32'1 0.8
2016-Feb-11 08:27N 38°02' E 023°31'0 0.0
2016-Feb-11 05:33N 38°02' E 023°31'0 0.0
2016-Feb-11 04:21N 38°02' E 023°31'0 0.0
2016-Feb-11 03:33N 38°02' E 023°31'0 0.0
2016-Feb-11 02:33N 38°02' E 023°31'0 0.0
2016-Feb-11 00:03N 38°02' E 023°31'0 0.0
2016-Feb-10 23:33N 38°02' E 023°31'0 0.0
2016-Feb-10 22:33N 38°02' E 023°31'0 0.0
2016-Feb-10 21:21N 38°02' E 023°31'0 0.0
2016-Feb-10 20:33N 38°02' E 023°31'0 0.0
2016-Feb-10 19:09N 38°02' E 023°31'0 0.0
2016-Feb-10 18:09N 38°02' E 023°31'0 0.0
2016-Feb-10 17:27N 38°02' E 023°31'0 0.0
2016-Feb-10 16:15N 38°02' E 023°31'0 0.0
2016-Feb-10 15:33N 38°02' E 023°31'1 0.8
2016-Feb-10 14:33N 38°02' E 023°31'0 0.1
2016-Feb-10 12:30N 38°02' E 023°32'0 0.0
2016-Feb-10 10:24N 38°02' E 023°32'0 0.1
2016-Feb-10 09:30N 38°02' E 023°32'2 1.8
2016-Feb-10 08:33N 38°00' E 023°33'8 7.6
2016-Feb-10 07:33N 37°53' E 023°37'  
2016-Feb-06 11:29N 37°38' E 023°45'8 8.9
2016-Feb-06 10:33N 37°45' E 023°40'9 9.2
2016-Feb-06 09:33N 37°54' E 023°37'8 7.6
2016-Feb-06 08:33N 38°01' E 023°32'1 0.5
2016-Feb-06 07:31N 38°01' E 023°32'0 0.0
2016-Feb-06 06:31N 38°01' E 023°32'0 0.0
2016-Feb-06 05:31N 38°01' E 023°32'0 0.0
2016-Feb-06 04:31N 38°01' E 023°32'0 0.0
2016-Feb-06 03:31N 38°01' E 023°32'0 0.0
2016-Feb-06 02:19N 38°01' E 023°32'0 0.0
2016-Feb-06 01:13N 38°01' E 023°32'0 0.0
2016-Feb-06 00:19N 38°01' E 023°32'1 1.4
2016-Feb-05 23:32N 38°01' E 023°33'2 1.0
2016-Feb-05 21:22N 38°02' E 023°36'0 0.0
2016-Feb-05 19:28N 38°02' E 023°36'0 0.0
2016-Feb-05 18:28N 38°02' E 023°36'0 0.0
2016-Feb-05 11:22N 38°02' E 023°36'0 0.0
2016-Feb-05 09:16N 38°02' E 023°36'1 1.1
2016-Feb-05 08:33N 38°01' E 023°35'3 2.6
2016-Feb-05 07:30N 38°01' E 023°32'0 0.0
2016-Feb-05 06:30N 38°01' E 023°32'0 0.0
2016-Feb-05 05:30N 38°01' E 023°32'0 0.1
2016-Feb-05 04:30N 38°02' E 023°31'0 0.0
2016-Feb-05 03:30N 38°02' E 023°31'0 0.0
2016-Feb-05 02:30N 38°02' E 023°31'0 0.0
2016-Feb-05 01:30N 38°02' E 023°32'0 0.0
2016-Feb-05 00:30N 38°02' E 023°31'0 0.1
2016-Feb-04 23:30N 38°02' E 023°32'0 0.0
2016-Feb-04 22:30N 38°02' E 023°32'0 0.0
2016-Feb-04 21:30N 38°02' E 023°32'0 0.1
2016-Feb-04 20:30N 38°02' E 023°32'0 0.0
2016-Feb-04 19:30N 38°02' E 023°32'0 0.0
2016-Feb-04 18:30N 38°02' E 023°32'0 0.0
2016-Feb-04 17:30N 38°02' E 023°32'0 0.0
2016-Feb-04 16:30N 38°02' E 023°32'0 0.0
2016-Feb-04 15:30N 38°02' E 023°31'0 0.0
2016-Feb-04 14:30N 38°02' E 023°32'0 0.0
2016-Feb-04 13:30N 38°02' E 023°32'0 0.0
2016-Feb-04 12:18N 38°02' E 023°32'0 0.0
2016-Feb-04 11:30N 38°02' E 023°32'0 0.0
2016-Feb-04 10:30N 38°02' E 023°32'0 0.0
2016-Feb-04 09:30N 38°02' E 023°32'0 0.0
2016-Feb-04 08:30N 38°02' E 023°32'0 0.0
2016-Feb-04 07:30N 38°02' E 023°32'0 0.0
2016-Feb-04 06:30N 38°01' E 023°32'0 0.0
2016-Feb-04 05:30N 38°02' E 023°32'0 0.0
2016-Feb-04 04:30N 38°02' E 023°32'0 0.0
2016-Feb-04 03:30N 38°02' E 023°32'0 0.0
2016-Feb-04 02:30N 38°02' E 023°32'0 0.0
2016-Feb-04 01:30N 38°02' E 023°32'0 0.0
2016-Feb-04 00:18N 38°02' E 023°32'0 0.0
2016-Feb-03 23:30N 38°02' E 023°32'0 0.0
2016-Feb-03 22:30N 38°02' E 023°32'0 0.0
2016-Feb-03 21:30N 38°02' E 023°32'0 0.0
2016-Feb-03 20:30N 38°02' E 023°32'0 0.1
2016-Feb-03 19:30N 38°02' E 023°31'0 0.0
2016-Feb-03 18:30N 38°02' E 023°31'0 0.1
2016-Feb-03 17:30N 38°02' E 023°32'0 0.0
2016-Feb-03 16:32N 38°02' E 023°32'0 0.0
2016-Feb-03 15:26N 38°02' E 023°32'0 0.0
2016-Feb-03 14:32N 38°02' E 023°32'0 0.0
2016-Feb-03 13:32N 38°02' E 023°32'0 0.0
2016-Feb-03 12:26N 38°02' E 023°32'0 0.0
2016-Feb-03 11:20N 38°02' E 023°32'0 0.0
2016-Feb-03 10:30N 38°02' E 023°32'0 0.0
2016-Feb-03 09:30N 38°02' E 023°31'0 0.0
2016-Feb-03 08:30N 38°02' E 023°31'0 0.0
2016-Feb-03 07:24N 38°02' E 023°31'0 0.1
2016-Feb-03 06:30N 38°02' E 023°31'0 0.0
2016-Feb-03 05:24N 38°02' E 023°31'0 0.0
2016-Feb-03 04:30N 38°02' E 023°31'0 0.0
2016-Feb-03 03:30N 38°02' E 023°31'0 0.0
2016-Feb-03 02:30N 38°02' E 023°31'0 0.0
2016-Feb-03 01:30N 38°02' E 023°31'0 0.0
2016-Feb-03 00:30N 38°02' E 023°31'0 0.0
2016-Feb-02 23:30N 38°02' E 023°31'0 0.0
2016-Feb-02 22:30N 38°02' E 023°31'0 0.0
2016-Feb-02 21:30N 38°02' E 023°31'0 0.0
2016-Feb-02 20:30N 38°02' E 023°31'0 0.0
2016-Feb-02 19:30N 38°02' E 023°32'0 0.0
2016-Feb-02 18:30N 38°02' E 023°31'0 0.1
2016-Feb-02 17:30N 38°02' E 023°31'0 0.0
2016-Feb-02 16:24N 38°02' E 023°32'0 0.0
2016-Feb-02 15:24N 38°02' E 023°32'0 0.0
2016-Feb-02 14:24N 38°02' E 023°32'0 0.0
2016-Feb-02 13:30N 38°02' E 023°32'0 0.1
2016-Feb-02 12:24N 38°02' E 023°32'0 0.0
2016-Feb-02 11:24N 38°02' E 023°32'0 0.0
2016-Feb-02 10:29N 38°02' E 023°32'0 0.0
2016-Feb-02 07:29N 38°02' E 023°31'0 0.0
2016-Feb-02 06:29N 38°01' E 023°31'0 0.1
2016-Feb-02 05:29N 38°02' E 023°32'0 0.0
2016-Feb-02 04:05N 38°02' E 023°32'0 0.0
2016-Feb-02 03:23N 38°02' E 023°32'0 0.1
2016-Feb-02 02:29N 38°02' E 023°31'0 0.0
2016-Feb-02 01:29N 38°02' E 023°31'0 0.0
2016-Feb-02 00:23N 38°02' E 023°31'0 0.0
2016-Feb-01 23:29N 38°02' E 023°31'0 0.0
2016-Feb-01 22:29N 38°02' E 023°31'0 0.0
2016-Feb-01 21:29N 38°02' E 023°31'0 0.1
2016-Feb-01 20:29N 38°02' E 023°32'  
Track history (hours):
 
Tides and Currents Weather Stations Pressure Air Temp Water Temp Dewpoint Dewpoint Depression Visibility Wind Speed Wind Dir Waves Ship Positions

Eko 4

Last reported at 2016-Feb-11 18:28 UTC. Time now 2016-Feb-14 14:38 UTC.
Position N 37°38' E 023°51'.

Length 88 m; draft 5.5 m.

Type: Tanker. MMSI: 240912000.

Date/timePositionNaut miles runAvg speedWind from/ knotsBaromVisibWave heightAir tempDewpointWater temp
2016-Feb-11 18:28N 37°38' E 023°51'8 8.4
2016-Feb-11 17:32N 37°41' E 023°42'9 9.1
2016-Feb-11 16:33N 37°49' E 023°37'8 8.2
2016-Feb-11 15:33N 37°57' E 023°35'5 4.1
2016-Feb-11 14:14N 38°02' E 023°32'0 0.0
2016-Feb-11 13:14N 38°02' E 023°32'0 0.0
2016-Feb-11 12:08N 38°02' E 023°32'0 0.0
2016-Feb-11 10:26N 38°02' E 023°32'0 0.2
2016-Feb-11 09:33N 38°02' E 023°32'1 0.8
2016-Feb-11 08:27N 38°02' E 023°31'0 0.0
2016-Feb-11 05:33N 38°02' E 023°31'0 0.0
2016-Feb-11 04:21N 38°02' E 023°31'0 0.0
2016-Feb-11 03:33N 38°02' E 023°31'0 0.0
2016-Feb-11 02:33N 38°02' E 023°31'0 0.0
2016-Feb-11 00:03N 38°02' E 023°31'0 0.0
2016-Feb-10 23:33N 38°02' E 023°31'0 0.0
2016-Feb-10 22:33N 38°02' E 023°31'0 0.0
2016-Feb-10 21:21N 38°02' E 023°31'0 0.0
2016-Feb-10 20:33N 38°02' E 023°31'0 0.0
2016-Feb-10 19:09N 38°02' E 023°31'0 0.0
2016-Feb-10 18:09N 38°02' E 023°31'0 0.0
2016-Feb-10 17:27N 38°02' E 023°31'0 0.0
2016-Feb-10 16:15N 38°02' E 023°31'0 0.0
2016-Feb-10 15:33N 38°02' E 023°31'1 0.8
2016-Feb-10 14:33N 38°02' E 023°31'0 0.1
2016-Feb-10 12:30N 38°02' E 023°32'0 0.0
2016-Feb-10 10:24N 38°02' E 023°32'0 0.1
2016-Feb-10 09:30N 38°02' E 023°32'2 1.8
2016-Feb-10 08:33N 38°00' E 023°33'8 7.6
2016-Feb-10 07:33N 37°53' E 023°37'  
2016-Feb-06 11:29N 37°38' E 023°45'8 8.9
2016-Feb-06 10:33N 37°45' E 023°40'9 9.2
2016-Feb-06 09:33N 37°54' E 023°37'8 7.6
2016-Feb-06 08:33N 38°01' E 023°32'1 0.5
2016-Feb-06 07:31N 38°01' E 023°32'0 0.0
2016-Feb-06 06:31N 38°01' E 023°32'0 0.0
2016-Feb-06 05:31N 38°01' E 023°32'0 0.0
2016-Feb-06 04:31N 38°01' E 023°32'0 0.0
2016-Feb-06 03:31N 38°01' E 023°32'0 0.0
2016-Feb-06 02:19N 38°01' E 023°32'0 0.0
2016-Feb-06 01:13N 38°01' E 023°32'0 0.0
2016-Feb-06 00:19N 38°01' E 023°32'1 1.4
2016-Feb-05 23:32N 38°01' E 023°33'2 1.0
2016-Feb-05 21:22N 38°02' E 023°36'0 0.0
2016-Feb-05 19:28N 38°02' E 023°36'0 0.0
2016-Feb-05 18:28N 38°02' E 023°36'0 0.0
2016-Feb-05 11:22N 38°02' E 023°36'0 0.0
2016-Feb-05 09:16N 38°02' E 023°36'1 1.1
2016-Feb-05 08:33N 38°01' E 023°35'3 2.6
2016-Feb-05 07:30N 38°01' E 023°32'0 0.0
2016-Feb-05 06:30N 38°01' E 023°32'0 0.0
2016-Feb-05 05:30N 38°01' E 023°32'0 0.1
2016-Feb-05 04:30N 38°02' E 023°31'0 0.0
2016-Feb-05 03:30N 38°02' E 023°31'0 0.0
2016-Feb-05 02:30N 38°02' E 023°31'0 0.0
2016-Feb-05 01:30N 38°02' E 023°32'0 0.0
2016-Feb-05 00:30N 38°02' E 023°31'0 0.1
2016-Feb-04 23:30N 38°02' E 023°32'0 0.0
2016-Feb-04 22:30N 38°02' E 023°32'0 0.0
2016-Feb-04 21:30N 38°02' E 023°32'0 0.1
2016-Feb-04 20:30N 38°02' E 023°32'0 0.0
2016-Feb-04 19:30N 38°02' E 023°32'0 0.0
2016-Feb-04 18:30N 38°02' E 023°32'0 0.0
2016-Feb-04 17:30N 38°02' E 023°32'0 0.0
2016-Feb-04 16:30N 38°02' E 023°32'0 0.0
2016-Feb-04 15:30N 38°02' E 023°31'0 0.0
2016-Feb-04 14:30N 38°02' E 023°32'0 0.0
2016-Feb-04 13:30N 38°02' E 023°32'0 0.0
2016-Feb-04 12:18N 38°02' E 023°32'0 0.0
2016-Feb-04 11:30N 38°02' E 023°32'0 0.0
2016-Feb-04 10:30N 38°02' E 023°32'0 0.0
2016-Feb-04 09:30N 38°02' E 023°32'0 0.0
2016-Feb-04 08:30N 38°02' E 023°32'0 0.0
2016-Feb-04 07:30N 38°02' E 023°32'0 0.0
2016-Feb-04 06:30N 38°01' E 023°32'0 0.0
2016-Feb-04 05:30N 38°02' E 023°32'0 0.0
2016-Feb-04 04:30N 38°02' E 023°32'0 0.0
2016-Feb-04 03:30N 38°02' E 023°32'0 0.0
2016-Feb-04 02:30N 38°02' E 023°32'0 0.0
2016-Feb-04 01:30N 38°02' E 023°32'0 0.0
2016-Feb-04 00:18N 38°02' E 023°32'0 0.0
2016-Feb-03 23:30N 38°02' E 023°32'0 0.0
2016-Feb-03 22:30N 38°02' E 023°32'0 0.0
2016-Feb-03 21:30N 38°02' E 023°32'0 0.0
2016-Feb-03 20:30N 38°02' E 023°32'0 0.1
2016-Feb-03 19:30N 38°02' E 023°31'0 0.0
2016-Feb-03 18:30N 38°02' E 023°31'0 0.1
2016-Feb-03 17:30N 38°02' E 023°32'0 0.0
2016-Feb-03 16:32N 38°02' E 023°32'0 0.0
2016-Feb-03 15:26N 38°02' E 023°32'0 0.0
2016-Feb-03 14:32N 38°02' E 023°32'0 0.0
2016-Feb-03 13:32N 38°02' E 023°32'0 0.0
2016-Feb-03 12:26N 38°02' E 023°32'0 0.0
2016-Feb-03 11:20N 38°02' E 023°32'0 0.0
2016-Feb-03 10:30N 38°02' E 023°32'0 0.0
2016-Feb-03 09:30N 38°02' E 023°31'0 0.0
2016-Feb-03 08:30N 38°02' E 023°31'0 0.0
2016-Feb-03 07:24N 38°02' E 023°31'0 0.1
2016-Feb-03 06:30N 38°02' E 023°31'0 0.0
2016-Feb-03 05:24N 38°02' E 023°31'0 0.0
2016-Feb-03 04:30N 38°02' E 023°31'0 0.0
2016-Feb-03 03:30N 38°02' E 023°31'0 0.0
2016-Feb-03 02:30N 38°02' E 023°31'0 0.0
2016-Feb-03 01:30N 38°02' E 023°31'0 0.0
2016-Feb-03 00:30N 38°02' E 023°31'0 0.0
2016-Feb-02 23:30N 38°02' E 023°31'0 0.0
2016-Feb-02 22:30N 38°02' E 023°31'0 0.0
2016-Feb-02 21:30N 38°02' E 023°31'0 0.0
2016-Feb-02 20:30N 38°02' E 023°31'0 0.0
2016-Feb-02 19:30N 38°02' E 023°32'0 0.0
2016-Feb-02 18:30N 38°02' E 023°31'0 0.1
2016-Feb-02 17:30N 38°02' E 023°31'0 0.0
2016-Feb-02 16:24N 38°02' E 023°32'0 0.0
2016-Feb-02 15:24N 38°02' E 023°32'0 0.0
2016-Feb-02 14:24N 38°02' E 023°32'0 0.0
2016-Feb-02 13:30N 38°02' E 023°32'0 0.1
2016-Feb-02 12:24N 38°02' E 023°32'0 0.0
2016-Feb-02 11:24N 38°02' E 023°32'0 0.0
2016-Feb-02 10:29N 38°02' E 023°32'0 0.0
2016-Feb-02 07:29N 38°02' E 023°31'0 0.0
2016-Feb-02 06:29N 38°01' E 023°31'0 0.1
2016-Feb-02 05:29N 38°02' E 023°32'0 0.0
2016-Feb-02 04:05N 38°02' E 023°32'0 0.0
2016-Feb-02 03:23N 38°02' E 023°32'0 0.1
2016-Feb-02 02:29N 38°02' E 023°31'0 0.0
2016-Feb-02 01:29N 38°02' E 023°31'0 0.0
2016-Feb-02 00:23N 38°02' E 023°31'0 0.0
2016-Feb-01 23:29N 38°02' E 023°31'0 0.0
2016-Feb-01 22:29N 38°02' E 023°31'0 0.0
2016-Feb-01 21:29N 38°02' E 023°31'0 0.1
2016-Feb-01 20:29N 38°02' E 023°32'  

Dump ship's entire track history